createdAt,value
2018-11-11T00:00:43.419Z,3.53
2018-11-11T00:03:12.820Z,3.29
2018-11-11T00:05:42.024Z,3.24
2018-11-11T00:08:11.288Z,3.38
2018-11-11T00:10:40.828Z,3.40
2018-11-11T00:13:11.287Z,3.41
2018-11-11T00:15:40.645Z,3.35
2018-11-11T00:18:10.137Z,3.38
2018-11-11T00:20:40.076Z,3.19
2018-11-11T00:23:09.919Z,3.30
2018-11-11T00:25:39.145Z,3.26
2018-11-11T00:28:08.778Z,3.00
2018-11-11T00:30:38.209Z,3.20
2018-11-11T00:33:08.075Z,3.23
2018-11-11T00:35:37.968Z,3.17
2018-11-11T00:38:07.434Z,3.21
2018-11-11T00:40:37.398Z,3.12
2018-11-11T00:43:07.132Z,3.13
2018-11-11T00:45:36.567Z,3.00
2018-11-11T00:48:05.988Z,3.06
2018-11-11T00:50:36.132Z,3.11
2018-11-11T00:53:06.110Z,3.06
2018-11-11T00:55:40.457Z,3.01
2018-11-11T00:58:09.822Z,3.03
2018-11-11T01:00:39.253Z,3.00
2018-11-11T01:03:08.555Z,2.98
2018-11-11T01:05:38.070Z,3.10
2018-11-11T01:08:08.372Z,3.05
2018-11-11T01:10:37.726Z,3.02
2018-11-11T01:13:07.251Z,2.95
2018-11-11T01:15:36.711Z,3.09
2018-11-11T01:18:06.090Z,3.22
2018-11-11T01:20:35.490Z,3.37
2018-11-11T01:23:05.020Z,3.34
2018-11-11T01:25:34.572Z,3.17
2018-11-11T01:28:03.950Z,3.12
2018-11-11T01:30:33.406Z,3.20
2018-11-11T01:33:02.900Z,3.20
2018-11-11T01:35:32.911Z,3.26
2018-11-11T01:38:02.385Z,3.25
2018-11-11T01:40:32.542Z,3.10
2018-11-11T01:43:01.922Z,2.88
2018-11-11T01:45:31.554Z,2.82
2018-11-11T01:48:01.739Z,2.87
2018-11-11T01:50:31.018Z,2.93
2018-11-11T01:53:00.436Z,2.96
2018-11-11T01:55:29.936Z,2.93
2018-11-11T01:57:59.403Z,2.78
2018-11-11T02:00:28.987Z,2.78
2018-11-11T02:02:58.253Z,2.91
2018-11-11T02:05:27.829Z,2.83
2018-11-11T02:07:58.400Z,2.76
2018-11-11T02:10:27.879Z,2.68
2018-11-11T02:12:57.318Z,2.77
2018-11-11T02:15:26.640Z,2.79
2018-11-11T02:17:55.883Z,2.76
2018-11-11T02:20:25.564Z,2.83
2018-11-11T02:22:54.842Z,2.76
2018-11-11T02:25:24.256Z,2.48
2018-11-11T02:27:53.567Z,2.27
2018-11-11T02:30:22.991Z,2.27
2018-11-11T02:32:52.395Z,2.30
2018-11-11T02:35:21.909Z,2.28
2018-11-11T02:37:51.244Z,2.40
2018-11-11T02:40:21.012Z,2.54
2018-11-11T02:42:51.496Z,2.56
2018-11-11T02:45:21.200Z,2.49
2018-11-11T02:47:51.465Z,2.51
2018-11-11T02:50:20.922Z,2.08
2018-11-11T02:52:50.354Z,2.36
2018-11-11T02:55:19.663Z,2.42
2018-11-11T02:57:49.251Z,2.38
2018-11-11T03:00:20.004Z,2.42
2018-11-11T03:02:49.801Z,2.37
2018-11-11T03:05:19.780Z,2.29
2018-11-11T03:07:49.379Z,2.31
2018-11-11T03:10:19.275Z,2.34
2018-11-11T03:12:50.056Z,2.29
2018-11-11T03:15:19.701Z,2.32
2018-11-11T03:17:49.591Z,2.43
2018-11-11T03:20:19.366Z,2.38
2018-11-11T03:22:48.614Z,2.32
2018-11-11T03:25:18.585Z,2.24
2018-11-11T03:27:47.973Z,2.19
2018-11-11T03:30:18.258Z,2.18
2018-11-11T03:32:48.357Z,2.05
2018-11-11T03:35:17.844Z,2.14
2018-11-11T03:37:47.343Z,2.16
2018-11-11T03:40:18.155Z,2.20
2018-11-11T03:42:47.832Z,2.17
2018-11-11T03:45:18.464Z,2.08
2018-11-11T03:47:48.669Z,2.05
2018-11-11T03:50:18.037Z,2.18
2018-11-11T03:52:47.524Z,2.22
2018-11-11T03:55:17.218Z,2.13
2018-11-11T03:57:46.581Z,2.22
2018-11-11T04:00:16.678Z,2.23
2018-11-11T04:02:46.943Z,2.03
2018-11-11T04:05:17.461Z,1.85
2018-11-11T04:07:46.900Z,1.97
2018-11-11T04:10:17.476Z,1.88
2018-11-11T04:12:47.247Z,1.77
2018-11-11T04:15:17.964Z,2.04
2018-11-11T04:17:47.475Z,1.94
2018-11-11T04:20:18.130Z,1.95
2018-11-11T04:22:47.534Z,1.63
2018-11-11T04:25:17.788Z,1.43
2018-11-11T04:27:47.120Z,1.26
2018-11-11T04:30:16.741Z,1.34
2018-11-11T04:32:46.019Z,1.37
2018-11-11T04:35:15.306Z,1.43
2018-11-11T04:37:44.700Z,1.50
2018-11-11T04:40:14.382Z,1.66
2018-11-11T04:42:43.742Z,1.63
2018-11-11T04:45:16.275Z,1.50
2018-11-11T04:47:46.354Z,1.77
2018-11-11T04:50:16.725Z,1.88
2018-11-11T04:52:46.765Z,1.81
2018-11-11T04:55:16.086Z,1.84
2018-11-11T04:57:46.215Z,1.74
2018-11-11T05:00:16.074Z,1.87
2018-11-11T05:02:45.219Z,2.01
2018-11-11T05:05:15.194Z,2.08
2018-11-11T05:07:44.777Z,2.18
2018-11-11T05:10:14.425Z,2.06
2018-11-11T05:12:43.836Z,2.18
2018-11-11T05:15:13.946Z,2.21
2018-11-11T05:17:43.756Z,2.24
2018-11-11T05:20:13.702Z,2.32
2018-11-11T05:22:43.685Z,2.26
2018-11-11T05:25:14.535Z,1.94
2018-11-11T05:27:44.369Z,1.62
2018-11-11T05:30:14.364Z,1.60
2018-11-11T05:32:44.015Z,1.41
2018-11-11T05:35:14.528Z,1.33
2018-11-11T05:37:44.171Z,1.29
2018-11-11T05:40:14.143Z,1.45
2018-11-11T05:42:44.205Z,1.52
2018-11-11T05:45:14.708Z,1.47
2018-11-11T05:47:47.755Z,1.10
2018-11-11T05:50:17.629Z,0.97
2018-11-11T05:52:47.735Z,0.80
2018-11-11T05:55:17.139Z,1.01
2018-11-11T05:57:46.536Z,1.38
2018-11-11T06:00:17.173Z,1.44
2018-11-11T06:02:46.587Z,1.50
2018-11-11T06:05:16.477Z,1.49
2018-11-11T06:07:45.906Z,1.54
2018-11-11T06:10:15.822Z,1.63
2018-11-11T06:12:45.197Z,1.35
2018-11-11T06:15:15.108Z,1.20
2018-11-11T06:17:44.659Z,1.21
2018-11-11T06:20:15.237Z,1.42
2018-11-11T06:22:44.692Z,1.30
2018-11-11T06:25:14.064Z,1.34
2018-11-11T06:27:44.070Z,1.48
2018-11-11T06:30:13.939Z,1.64
2018-11-11T06:32:43.490Z,1.73
2018-11-11T06:35:12.987Z,1.81
2018-11-11T06:37:42.548Z,1.86
2018-11-11T06:40:13.160Z,1.90
2018-11-11T06:42:44.041Z,1.86
2018-11-11T06:45:15.534Z,1.61
2018-11-11T06:47:45.481Z,1.43
2018-11-11T06:50:16.314Z,1.46
2018-11-11T06:52:45.735Z,1.31
2018-11-11T06:55:15.079Z,1.30
2018-11-11T06:57:44.794Z,1.24
2018-11-11T07:00:15.314Z,1.31
2018-11-11T07:02:55.778Z,1.53
2018-11-11T07:05:25.350Z,1.33
2018-11-11T07:07:54.814Z,1.63
2018-11-11T07:10:24.860Z,1.69
2018-11-11T07:12:54.506Z,1.88
2018-11-11T07:15:24.939Z,2.04
2018-11-11T07:17:54.816Z,2.15
2018-11-11T07:20:24.536Z,2.29
2018-11-11T07:22:54.765Z,2.26
2018-11-11T07:25:24.601Z,2.21
2018-11-11T07:27:55.216Z,2.07
2018-11-11T07:30:25.383Z,2.06
2018-11-11T07:32:54.682Z,2.29
2018-11-11T07:35:24.038Z,2.11
2018-11-11T07:37:54.474Z,2.09
2018-11-11T07:40:23.828Z,1.98
2018-11-11T07:42:53.175Z,2.13
2018-11-11T07:45:22.653Z,1.99
2018-11-11T07:47:52.026Z,2.19
2018-11-11T07:50:21.520Z,2.45
2018-11-11T07:52:51.790Z,2.47
2018-11-11T07:55:21.374Z,2.66
2018-11-11T07:57:50.865Z,2.62
2018-11-11T08:00:20.188Z,2.56
2018-11-11T08:02:49.992Z,2.58
2018-11-11T08:05:26.220Z,2.54
2018-11-11T08:07:55.772Z,2.78
2018-11-11T08:10:36.437Z,2.97
2018-11-11T08:13:06.046Z,2.42
2018-11-11T08:15:37.879Z,2.61
2018-11-11T08:18:07.380Z,2.42
2018-11-11T08:20:37.991Z,2.71
2018-11-11T08:23:07.540Z,2.99
2018-11-11T08:25:36.967Z,3.06
2018-11-11T08:28:07.200Z,3.28
2018-11-11T08:30:36.824Z,3.07
2018-11-11T08:33:07.059Z,3.03
2018-11-11T08:35:36.325Z,3.38
2018-11-11T08:38:05.615Z,3.70
2018-11-11T08:40:35.044Z,3.85
2018-11-11T08:43:04.225Z,3.68
2018-11-11T08:45:34.572Z,3.47
2018-11-11T08:48:03.959Z,3.82
2018-11-11T08:50:33.227Z,3.69
2018-11-11T08:53:02.594Z,3.51
2018-11-11T08:55:32.611Z,3.55
2018-11-11T08:58:03.372Z,3.68
2018-11-11T09:00:33.520Z,3.81
2018-11-11T09:03:03.538Z,3.46
2018-11-11T09:05:33.288Z,3.92
2018-11-11T09:08:03.093Z,3.83
2018-11-11T09:10:32.493Z,3.91
2018-11-11T09:13:05.739Z,4.13
2018-11-11T09:15:35.197Z,4.43
2018-11-11T09:18:04.736Z,4.36
2018-11-11T09:20:34.653Z,4.78
2018-11-11T09:23:03.973Z,4.16
2018-11-11T09:25:33.571Z,4.39
2018-11-11T09:28:02.810Z,4.90
2018-11-11T09:30:32.597Z,5.38
2018-11-11T09:33:02.067Z,5.76
2018-11-11T09:35:31.511Z,6.50
2018-11-11T09:38:00.764Z,6.26
2018-11-11T09:40:31.204Z,6.44
2018-11-11T09:43:00.600Z,6.30
2018-11-11T09:45:30.140Z,6.86
2018-11-11T09:47:59.635Z,7.79
2018-11-11T09:50:29.934Z,7.40
2018-11-11T09:52:59.510Z,7.02
2018-11-11T09:55:30.014Z,7.38
2018-11-11T09:57:59.433Z,7.66
2018-11-11T10:00:28.859Z,7.44
2018-11-11T10:05:05.840Z,8.49
2018-11-11T10:07:50.209Z,8.10
2018-11-11T10:10:24.652Z,8.88
2018-11-11T10:13:02.746Z,8.35
2018-11-11T10:15:38.979Z,9.44
2018-11-11T10:18:20.197Z,9.08
2018-11-11T10:21:00.588Z,9.54
2018-11-11T10:23:44.566Z,9.02
2018-11-11T10:26:21.032Z,9.46
2018-11-11T10:28:59.015Z,10.45
2018-11-11T10:31:34.239Z,10.25
2018-11-11T10:34:08.378Z,8.75
2018-11-11T10:36:43.081Z,8.66
2018-11-11T10:39:17.342Z,10.27
2018-11-11T10:42:26.903Z,10.75
2018-11-11T10:45:03.967Z,11.28
2018-11-11T10:47:37.803Z,10.97
2018-11-11T10:50:10.132Z,10.82
2018-11-11T10:52:39.751Z,10.80
2018-11-11T10:55:09.619Z,11.41
2018-11-11T10:57:40.193Z,12.21
2018-11-11T11:02:17.145Z,12.23
2018-11-11T11:04:51.474Z,11.67
2018-11-11T11:07:21.147Z,11.73
2018-11-11T11:09:51.831Z,11.39
2018-11-11T11:12:21.859Z,11.63
2018-11-11T11:14:51.417Z,11.56
2018-11-11T11:17:20.851Z,12.19
2018-11-11T11:19:51.137Z,12.67
2018-11-11T11:22:20.993Z,11.97
2018-11-11T11:24:50.648Z,12.53
2018-11-11T11:27:20.242Z,12.04
2018-11-11T11:29:50.066Z,12.60
2018-11-11T11:32:19.679Z,12.66
2018-11-11T11:34:50.057Z,13.21
2018-11-11T11:37:19.458Z,13.73
2018-11-11T11:39:48.794Z,13.36
2018-11-11T11:42:18.252Z,13.71
2018-11-11T11:44:47.606Z,13.69
2018-11-11T11:47:17.840Z,13.37
2018-11-11T11:49:47.132Z,12.73
2018-11-11T11:52:16.612Z,12.89
2018-11-11T11:54:47.166Z,13.40
2018-11-11T11:57:17.086Z,13.56
2018-11-11T11:59:46.450Z,13.63
2018-11-11T12:02:15.664Z,13.44
2018-11-11T12:04:44.963Z,13.14
2018-11-11T12:07:14.389Z,13.97
2018-11-11T12:09:43.945Z,14.01
2018-11-11T12:12:13.376Z,14.68
2018-11-11T12:14:42.919Z,14.32
2018-11-11T12:17:13.594Z,13.60
2018-11-11T12:19:44.615Z,14.23
2018-11-11T12:22:14.011Z,14.52
2018-11-11T12:24:43.539Z,14.63
2018-11-11T12:27:12.822Z,14.23
2018-11-11T12:29:42.154Z,14.82
2018-11-11T12:32:11.524Z,14.69
2018-11-11T12:34:40.905Z,14.85
2018-11-11T12:37:10.393Z,14.77
2018-11-11T12:39:40.234Z,14.78
2018-11-11T12:42:09.700Z,13.90
2018-11-11T12:44:40.271Z,14.63
2018-11-11T12:47:10.148Z,14.07
2018-11-11T12:49:39.601Z,14.07
2018-11-11T12:52:08.997Z,13.77
2018-11-11T12:54:38.373Z,13.88
2018-11-11T12:57:08.046Z,13.73
2018-11-11T12:59:37.918Z,14.10
2018-11-11T13:02:07.604Z,14.63
2018-11-11T13:04:37.191Z,14.34
2018-11-11T13:07:07.416Z,13.61
2018-11-11T13:09:36.917Z,14.01
2018-11-11T13:12:07.021Z,13.77
2018-11-11T13:14:36.478Z,13.90
2018-11-11T13:17:05.860Z,14.38
2018-11-11T13:19:35.321Z,14.71
2018-11-11T13:22:04.917Z,14.59
2018-11-11T13:24:34.179Z,14.52
2018-11-11T13:27:03.536Z,14.65
2018-11-11T13:29:33.246Z,14.90
2018-11-11T13:32:03.174Z,15.10
2018-11-11T13:34:32.849Z,14.77
2018-11-11T13:37:02.445Z,14.81
2018-11-11T13:39:31.843Z,14.65
2018-11-11T13:42:01.589Z,14.60
2018-11-11T13:44:31.338Z,14.38
2018-11-11T13:47:00.806Z,14.44
2018-11-11T13:49:30.267Z,14.72
2018-11-11T13:52:00.063Z,14.40
2018-11-11T13:54:29.740Z,14.63
2018-11-11T13:56:59.202Z,14.52
2018-11-11T13:59:28.642Z,14.66
2018-11-11T14:01:58.995Z,14.73
2018-11-11T14:04:28.390Z,14.71
2018-11-11T14:06:57.882Z,14.43
2018-11-11T14:09:27.243Z,14.02
2018-11-11T14:11:56.607Z,14.03
2018-11-11T14:14:27.324Z,14.09
2018-11-11T14:16:56.545Z,13.88
2018-11-11T14:19:26.094Z,13.36
2018-11-11T14:21:55.857Z,13.16
2018-11-11T14:24:26.031Z,13.12
2018-11-11T14:26:55.582Z,12.92
2018-11-11T14:29:26.242Z,12.75
2018-11-11T14:31:55.913Z,12.81
2018-11-11T14:34:25.584Z,12.29
2018-11-11T14:36:54.942Z,12.07
2018-11-11T14:39:24.322Z,12.02
2018-11-11T14:41:53.867Z,11.87
2018-11-11T14:44:23.391Z,11.78
2018-11-11T14:46:53.333Z,11.90
2018-11-11T14:49:22.888Z,11.67
2018-11-11T14:51:52.279Z,11.61
2018-11-11T14:54:23.124Z,11.48
2018-11-11T14:56:52.555Z,11.26
2018-11-11T14:59:22.042Z,10.80
2018-11-11T15:01:51.513Z,10.62
2018-11-11T15:04:21.033Z,11.04
2018-11-11T15:06:51.511Z,10.88
2018-11-11T15:09:20.941Z,10.56
2018-11-11T15:11:50.531Z,10.93
2018-11-11T15:14:20.134Z,10.69
2018-11-11T15:16:49.586Z,10.62
2018-11-11T15:19:19.184Z,10.39
2018-11-11T15:21:48.612Z,10.53
2018-11-11T15:24:18.023Z,10.12
2018-11-11T15:26:47.759Z,9.80
2018-11-11T15:29:17.219Z,10.10
2018-11-11T15:31:47.453Z,10.06
2018-11-11T15:34:18.269Z,10.15
2018-11-11T15:36:47.744Z,10.12
2018-11-11T15:39:17.795Z,9.98
2018-11-11T15:41:47.223Z,10.03
2018-11-11T15:44:16.712Z,9.96
2018-11-11T15:46:46.273Z,9.85
2018-11-11T15:49:16.079Z,9.55
2018-11-11T15:51:45.469Z,9.45
2018-11-11T15:54:18.257Z,9.35
2018-11-11T15:56:47.719Z,9.28
2018-11-11T15:59:17.348Z,9.21
2018-11-11T16:01:46.920Z,9.32
2018-11-11T16:04:16.319Z,9.05
2018-11-11T16:06:45.791Z,8.87
2018-11-11T16:09:15.278Z,8.90
2018-11-11T16:11:44.902Z,9.06
2018-11-11T16:14:15.397Z,9.19
2018-11-11T16:16:45.892Z,9.00
2018-11-11T16:19:15.940Z,9.00
2018-11-11T16:21:45.378Z,8.88
2018-11-11T16:24:15.867Z,8.66
2018-11-11T16:26:45.219Z,8.64
2018-11-11T16:29:14.770Z,8.61
2018-11-11T16:31:44.821Z,8.49
2018-11-11T16:34:14.384Z,8.41
2018-11-11T16:36:45.873Z,8.52
2018-11-11T16:39:15.431Z,8.55
2018-11-11T16:41:45.047Z,8.48
2018-11-11T16:44:15.465Z,8.31
2018-11-11T16:46:46.740Z,8.16
2018-11-11T16:49:17.306Z,8.16
2018-11-11T16:51:49.678Z,7.92
2018-11-11T16:54:19.564Z,8.13
2018-11-11T16:56:49.877Z,8.18
2018-11-11T16:59:20.124Z,8.13
2018-11-11T17:01:50.781Z,8.18
2018-11-11T17:04:20.533Z,8.13
2018-11-11T17:06:50.964Z,8.03
2018-11-11T17:09:21.889Z,8.02
2018-11-11T17:11:52.186Z,7.83
2018-11-11T17:14:23.523Z,7.64
2018-11-11T17:16:54.837Z,7.79
2018-11-11T17:19:25.919Z,7.68
2018-11-11T17:21:55.902Z,7.70
2018-11-11T17:24:26.933Z,7.90
2018-11-11T17:27:00.222Z,7.85
2018-11-11T17:29:31.688Z,7.62
2018-11-11T17:32:02.585Z,7.54
2018-11-11T17:34:33.653Z,7.56
2018-11-11T17:37:04.948Z,7.37
2018-11-11T17:39:36.337Z,7.15
2018-11-11T17:42:06.589Z,7.26
2018-11-11T17:44:36.829Z,7.43
2018-11-11T17:47:07.556Z,7.22
2018-11-11T17:49:39.205Z,7.35
2018-11-11T17:52:09.086Z,7.19
2018-11-11T17:54:38.992Z,7.19
2018-11-11T17:57:08.455Z,7.38
2018-11-11T17:59:38.694Z,7.45
2018-11-11T18:02:08.627Z,7.43
2018-11-11T18:04:38.616Z,7.38
2018-11-11T18:07:08.265Z,7.36
2018-11-11T18:09:38.060Z,7.27
2018-11-11T18:12:10.008Z,7.28
2018-11-11T18:14:39.594Z,7.29
2018-11-11T18:17:09.947Z,7.28
2018-11-11T18:19:39.422Z,7.15
2018-11-11T18:22:10.111Z,7.14
2018-11-11T18:24:40.356Z,7.18
2018-11-11T18:27:11.575Z,6.92
2018-11-11T18:29:43.028Z,6.84
2018-11-11T18:32:13.144Z,6.84
2018-11-11T18:34:43.788Z,6.76
2018-11-11T18:37:13.759Z,6.90
2018-11-11T18:39:44.720Z,6.88
2018-11-11T18:42:14.883Z,6.84
2018-11-11T18:44:46.540Z,6.70
2018-11-11T18:47:17.062Z,6.70
2018-11-11T18:49:47.502Z,6.73
2018-11-11T18:52:17.236Z,6.50
2018-11-11T18:54:46.929Z,6.49
2018-11-11T18:57:17.230Z,6.58
2018-11-11T18:59:49.365Z,6.72
2018-11-11T19:02:20.127Z,6.60
2018-11-11T19:04:51.550Z,6.62
2018-11-11T19:07:21.649Z,6.66
2018-11-11T19:09:54.220Z,6.54
2018-11-11T19:12:25.549Z,6.49
2018-11-11T19:14:55.979Z,6.39
2018-11-11T19:17:28.413Z,6.42
2018-11-11T19:20:00.142Z,6.38
2018-11-11T19:22:31.763Z,6.23
2018-11-11T19:25:02.573Z,6.25
2018-11-11T19:27:34.868Z,6.41
2018-11-11T19:30:06.143Z,6.33
2018-11-11T19:32:35.998Z,6.13
2018-11-11T19:35:06.444Z,6.26
2018-11-11T19:37:35.832Z,6.35
2018-11-11T19:40:06.044Z,6.13
2018-11-11T19:42:36.082Z,6.04
2018-11-11T19:45:07.441Z,5.95
2018-11-11T19:47:37.799Z,6.05
2018-11-11T19:50:08.353Z,5.92
2018-11-11T19:52:38.262Z,5.94
2018-11-11T19:55:10.144Z,5.99
2018-11-11T19:57:41.547Z,6.00
2018-11-11T20:07:03.804Z,6.01
2018-11-11T20:09:34.820Z,6.14
2018-11-11T20:12:04.735Z,5.91
2018-11-11T20:14:34.946Z,6.00
2018-11-11T20:17:05.772Z,6.03
2018-11-11T20:19:35.752Z,5.94
2018-11-11T20:22:05.583Z,5.91
2018-11-11T20:24:35.010Z,5.84
2018-11-11T20:27:04.754Z,5.53
2018-11-11T20:29:34.821Z,5.54
2018-11-11T20:32:05.343Z,5.48
2018-11-11T20:34:35.515Z,5.57
2018-11-11T20:37:09.507Z,5.61
2018-11-11T20:39:39.721Z,5.55
2018-11-11T20:42:09.636Z,5.57
2018-11-11T20:44:39.497Z,5.52
2018-11-11T20:47:09.054Z,5.48
2018-11-11T20:49:40.144Z,5.47
2018-11-11T20:52:09.535Z,5.39
2018-11-11T20:54:39.110Z,5.13
2018-11-11T20:57:10.384Z,5.09
2018-11-11T20:59:40.917Z,5.12
2018-11-11T21:02:10.274Z,5.05
2018-11-11T21:04:40.623Z,5.11
2018-11-11T21:07:10.189Z,5.23
2018-11-11T21:09:40.413Z,5.15
2018-11-11T21:12:10.080Z,5.15
2018-11-11T21:14:39.721Z,5.10
2018-11-11T21:17:09.305Z,5.03
2018-11-11T21:19:38.980Z,5.02
2018-11-11T21:22:12.619Z,4.89
2018-11-11T21:24:42.768Z,4.84
2018-11-11T21:27:12.239Z,4.80
2018-11-11T21:29:41.757Z,4.84
2018-11-11T21:32:12.579Z,4.77
2018-11-11T21:34:42.682Z,4.73
2018-11-11T21:37:12.315Z,4.81
2018-11-11T21:39:42.064Z,4.59
2018-11-11T21:42:12.909Z,4.25
2018-11-11T21:44:42.491Z,4.53
2018-11-11T21:47:11.938Z,4.60
2018-11-11T21:49:41.458Z,4.60
2018-11-11T21:52:10.917Z,4.61
2018-11-11T21:54:40.524Z,4.27
2018-11-11T21:57:09.929Z,4.43
2018-11-11T21:59:39.528Z,4.55
2018-11-11T22:02:09.262Z,4.47
2018-11-11T22:04:38.683Z,4.39
2018-11-11T22:07:08.248Z,4.45
2018-11-11T22:09:38.436Z,4.26
2018-11-11T22:12:07.851Z,4.32
2018-11-11T22:14:37.288Z,4.32
2018-11-11T22:17:07.894Z,4.30
2018-11-11T22:19:38.282Z,4.31
2018-11-11T22:22:08.726Z,4.16
2018-11-11T22:24:37.912Z,4.21
2018-11-11T22:27:07.804Z,4.17
2018-11-11T22:29:37.288Z,4.09
2018-11-11T22:32:06.723Z,4.07
2018-11-11T22:34:36.229Z,4.17
2018-11-11T22:37:05.847Z,4.27
2018-11-11T22:39:35.576Z,4.28
2018-11-11T22:42:04.857Z,4.31
2018-11-11T22:44:34.248Z,4.24
2018-11-11T22:47:03.791Z,4.30
2018-11-11T22:49:33.325Z,4.07
2018-11-11T22:52:02.685Z,4.11
2018-11-11T22:54:32.140Z,4.16
2018-11-11T22:57:01.579Z,4.16
2018-11-11T22:59:31.818Z,3.91
2018-11-11T23:02:01.223Z,3.94
2018-11-11T23:04:30.633Z,4.00
2018-11-11T23:07:02.685Z,3.92
2018-11-11T23:09:31.907Z,3.97
2018-11-11T23:12:01.288Z,3.81
2018-11-11T23:14:30.508Z,3.80
2018-11-11T23:16:59.783Z,3.78
2018-11-11T23:19:29.228Z,3.83
2018-11-11T23:21:58.960Z,3.85
2018-11-11T23:24:28.397Z,3.90
2018-11-11T23:26:57.890Z,3.91
2018-11-11T23:29:27.328Z,3.92
2018-11-11T23:31:56.769Z,3.89
2018-11-11T23:34:26.132Z,3.80
2018-11-11T23:36:55.542Z,3.87
2018-11-11T23:39:25.808Z,3.94
2018-11-11T23:41:56.060Z,3.92
2018-11-11T23:44:25.269Z,3.72
2018-11-11T23:46:54.769Z,3.71
2018-11-11T23:49:24.376Z,3.76
2018-11-11T23:51:54.736Z,3.67
2018-11-11T23:54:24.068Z,3.67
2018-11-11T23:56:53.389Z,3.69
2018-11-11T23:59:22.808Z,3.71
